Shokyu Maru — JG5288 — position and weather

sailwx.info

Track history (hours):
 
Tides and Currents Weather Stations Pressure Air Temp Water Temp Dewpoint Dewpoint Depression Visibility Wind Speed Wind Dir Waves Ship Positions

Shokyu Maru

Last reported at 2016-Dec-11 03:33 UTC. Time now 2016-Dec-11 04:12 UTC.
Position N 35°31' E 139°52'.

Length 91 m; draft 3.8 m.

Type: Ship. MMSI: 431000253.

Date/timePositionNaut miles runAvg speedWind from/ knotsBaromVisibWave heightAir tempDewpointWater temp
2016-Dec-11 03:33N 35°31' E 139°52'10 1.9
2016-Dec-10 22:09N 35°40' E 139°57'4 7.0
2016-Dec-10 21:32N 35°36' E 139°56'1 0.7
2016-Dec-10 20:18N 35°35' E 139°55'0 0.0
2016-Dec-10 19:30N 35°35' E 139°55'0 0.0
2016-Dec-10 17:21N 35°35' E 139°55'0 0.0
2016-Dec-10 12:33N 35°35' E 139°55'9 9.0
2016-Dec-10 11:33N 35°29' E 139°48'8 8.0
2016-Dec-10 10:32N 35°24' E 139°39'0 0.1
2016-Dec-10 09:32N 35°24' E 139°40'0 0.0
2016-Dec-10 08:32N 35°24' E 139°40'0 0.0
2016-Dec-10 07:32N 35°24' E 139°40'0 0.0
2016-Dec-10 06:32N 35°24' E 139°40'0 0.0
2016-Dec-10 05:32N 35°24' E 139°40'0 0.0
2016-Dec-10 04:32N 35°24' E 139°40'0 0.0
2016-Dec-10 03:32N 35°24' E 139°40'0 0.0
2016-Dec-10 02:32N 35°24' E 139°40'2 2.5
2016-Dec-10 01:33N 35°22' E 139°41'5 5.2
2016-Dec-10 00:33N 35°17' E 139°41'0 0.0
2016-Dec-09 23:33N 35°17' E 139°41'0 0.0
2016-Dec-09 22:33N 35°17' E 139°41'0 0.0
2016-Dec-09 21:33N 35°17' E 139°41'0 0.0
2016-Dec-09 20:33N 35°17' E 139°41'0 0.0
2016-Dec-09 19:33N 35°17' E 139°41'0 0.0
2016-Dec-09 18:27N 35°17' E 139°41'0 0.0
2016-Dec-09 17:33N 35°17' E 139°41'0 0.0
2016-Dec-09 16:27N 35°17' E 139°41'0 0.0
2016-Dec-09 15:33N 35°17' E 139°41'0 0.0
2016-Dec-09 14:33N 35°17' E 139°41'0 0.0
2016-Dec-09 13:33N 35°17' E 139°41'0 0.0
2016-Dec-09 12:33N 35°17' E 139°41'0 0.0
2016-Dec-09 11:21N 35°17' E 139°41'0 0.0
2016-Dec-09 10:30N 35°17' E 139°41'0 0.0
2016-Dec-09 09:33N 35°17' E 139°41'0 0.0
2016-Dec-09 08:30N 35°17' E 139°41'0 0.0
2016-Dec-09 07:33N 35°17' E 139°41'0 0.0
2016-Dec-09 06:16N 35°17' E 139°41'6 8.5
2016-Dec-09 05:33N 35°23' E 139°42'9 8.8
2016-Dec-09 04:33N 35°29' E 139°50'9 9.1
2016-Dec-09 03:33N 35°36' E 139°57'4 0.8
2016-Dec-08 22:11N 35°41' E 139°56'4 6.8
2016-Dec-08 21:33N 35°36' E 139°57'1 0.4
2016-Dec-08 18:33N 35°36' E 139°55'0 0.0
2016-Dec-08 17:18N 35°36' E 139°55'0 0.0
2016-Dec-08 16:21N 35°36' E 139°55'0 0.0
2016-Dec-08 15:33N 35°36' E 139°55'0 0.0
2016-Dec-08 14:30N 35°36' E 139°55'0 0.0
2016-Dec-08 13:18N 35°36' E 139°55'0 0.0
2016-Dec-08 12:33N 35°36' E 139°55'4 3.6
2016-Dec-08 11:33N 35°33' E 139°52'5 5.2
2016-Dec-08 10:32N 35°31' E 139°46'0 0.0
2016-Dec-08 09:32N 35°31' E 139°46'0 0.0
2016-Dec-08 08:32N 35°31' E 139°46'0 0.0
2016-Dec-08 07:32N 35°31' E 139°46'0 0.0
2016-Dec-08 06:29N 35°31' E 139°46'0 0.0
2016-Dec-08 05:32N 35°31' E 139°46'3 2.9
2016-Dec-08 04:33N 35°29' E 139°43'7 7.1
2016-Dec-08 03:33N 35°31' E 139°52'10 1.6
2016-Dec-07 21:33N 35°39' E 139°58'4 4.3
2016-Dec-07 20:32N 35°35' E 139°55'0 0.0
2016-Dec-07 19:32N 35°35' E 139°55'0 0.0
2016-Dec-07 17:29N 35°35' E 139°55'0 0.0
2016-Dec-07 14:14N 35°35' E 139°55'0 0.0
2016-Dec-07 13:26N 35°35' E 139°55'0 0.0
2016-Dec-07 11:32N 35°35' E 139°55'1 1.2
2016-Dec-07 10:33N 35°35' E 139°54'8 7.3
2016-Dec-07 09:32N 35°32' E 139°46'0 0.0
2016-Dec-07 08:29N 35°32' E 139°46'0 0.0
2016-Dec-07 07:32N 35°32' E 139°46'0 0.0
2016-Dec-07 06:29N 35°32' E 139°46'0 0.0
2016-Dec-07 05:29N 35°32' E 139°46'0 0.0
2016-Dec-07 04:32N 35°32' E 139°46'4 4.6
2016-Dec-07 03:34N 35°28' E 139°42'7 6.7
2016-Dec-07 02:33N 35°29' E 139°50'1110.9
2016-Dec-07 01:31N 35°38' E 139°59'0 0.0
2016-Dec-06 21:32N 35°38' E 139°58'6 0.6
2016-Dec-06 12:34N 35°34' E 139°54'10 9.7
2016-Dec-06 11:34N 35°27' E 139°45'6 5.1
2016-Dec-06 10:28N 35°24' E 139°40'0 0.0
2016-Dec-06 09:31N 35°24' E 139°40'0 0.0
2016-Dec-06 08:28N 35°24' E 139°40'0 0.0
2016-Dec-06 07:28N 35°24' E 139°40'0 0.0
2016-Dec-06 06:31N 35°24' E 139°40'0 0.0
2016-Dec-06 05:31N 35°24' E 139°40'0 0.0
2016-Dec-06 04:31N 35°24' E 139°40'2 1.9
2016-Dec-06 03:33N 35°24' E 139°42'1212.1
2016-Dec-06 02:33N 35°32' E 139°53'9 2.1
2016-Dec-05 22:04N 35°40' E 139°57'4 7.3
2016-Dec-05 21:31N 35°36' E 139°57'1 1.3
2016-Dec-05 20:26N 35°35' E 139°55'0 0.0
2016-Dec-05 19:29N 35°35' E 139°55'0 0.0
2016-Dec-05 18:32N 35°35' E 139°55'0 0.0
2016-Dec-05 17:29N 35°35' E 139°55'0 0.0
2016-Dec-05 14:11N 35°35' E 139°55'0 0.0
2016-Dec-05 13:29N 35°35' E 139°55'0 0.0
2016-Dec-05 12:32N 35°35' E 139°55'0 0.0
2016-Dec-05 11:32N 35°35' E 139°55'8 8.4
2016-Dec-05 10:33N 35°29' E 139°48'9 4.3
2016-Dec-05 08:31N 35°24' E 139°40'0 0.0
2016-Dec-05 07:31N 35°24' E 139°40'0 0.0
2016-Dec-05 06:31N 35°24' E 139°40'0 0.4
2016-Dec-05 05:33N 35°24' E 139°40'9 9.0
2016-Dec-05 04:33N 35°29' E 139°49'0 0.0
2016-Dec-05 03:31N 35°29' E 139°49'0 0.0
2016-Dec-05 02:31N 35°29' E 139°49'0 0.0
2016-Dec-05 01:31N 35°29' E 139°49'0 0.0
2016-Dec-05 00:31N 35°29' E 139°49'4 4.4
2016-Dec-04 23:33N 35°32' E 139°53'1010.2
2016-Dec-04 22:33N 35°41' E 139°59'0 0.0
2016-Dec-04 21:33N 35°41' E 139°59'0 0.0
2016-Dec-04 20:33N 35°41' E 139°59'0 0.0
2016-Dec-04 19:33N 35°41' E 139°59'0 0.0
2016-Dec-04 18:33N 35°41' E 139°59'0 0.0
2016-Dec-04 17:33N 35°41' E 139°59'0 0.0
2016-Dec-04 16:33N 35°41' E 139°59'0 0.0
2016-Dec-04 15:33N 35°41' E 139°59'0 0.0
2016-Dec-04 14:21N 35°41' E 139°59'0 0.0
2016-Dec-04 13:33N 35°41' E 139°59'0 0.0
2016-Dec-04 12:30N 35°41' E 139°59'0 0.0
2016-Dec-04 11:33N 35°41' E 139°59'0 0.0
2016-Dec-04 10:33N 35°41' E 139°59'0 0.0
2016-Dec-04 09:27N 35°41' E 139°59'0 0.0
2016-Dec-04 08:33N 35°41' E 139°59'0 0.0
2016-Dec-04 07:33N 35°41' E 139°59'0 0.0
2016-Dec-04 06:30N 35°41' E 139°59'0 0.0
2016-Dec-04 05:27N 35°41' E 139°59'0 0.0
2016-Dec-04 04:30N 35°41' E 139°59'0 0.0
2016-Dec-04 03:33N 35°41' E 139°59'3 2.8
2016-Dec-04 02:29N 35°38' E 139°59'1 1.3
2016-Dec-04 01:33N 35°37' E 139°58'2 0.4
2016-Dec-03 21:32N 35°39' E 139°58'4 4.3
2016-Dec-03 20:32N 35°35' E 139°55'0 0.0
2016-Dec-03 19:29N 35°35' E 139°55'0 0.0
2016-Dec-03 18:32N 35°35' E 139°55'0 0.0
2016-Dec-03 17:32N 35°35' E 139°55'0 0.0
2016-Dec-03 16:32N 35°35' E 139°55'0 0.0
2016-Dec-03 15:32N 35°35' E 139°55'0 0.0
2016-Dec-03 14:32N 35°35' E 139°55'0 0.0
2016-Dec-03 13:26N 35°35' E 139°55'0 0.0
2016-Dec-03 12:29N 35°35' E 139°55'0 0.0
2016-Dec-03 11:32N 35°35' E 139°55'6 6.6
2016-Dec-03 10:33N 35°31' E 139°50'1010.3
2016-Dec-03 09:33N 35°24' E 139°40'1 1.1
2016-Dec-03 08:31N 35°24' E 139°40'0 0.0
2016-Dec-03 07:31N 35°24' E 139°40'0 0.0
2016-Dec-03 06:31N 35°24' E 139°40'0 0.0
2016-Dec-03 05:33N 35°24' E 139°40'9 9.3
2016-Dec-03 04:33N 35°29' E 139°50'1211.8
2016-Dec-03 03:33N 35°38' E 139°59'1 0.2
2016-Dec-02 21:32N 35°39' E 139°58'4 1.3
2016-Dec-02 18:21N 35°36' E 139°55'0 0.0
2016-Dec-02 13:04N 35°35' E 139°55'510.2
2016-Dec-02 12:33N 35°32' E 139°51'1010.3
2016-Dec-02 11:33N 35°24' E 139°42'2 2.0
2016-Dec-02 10:31N 35°24' E 139°40'0 0.0
2016-Dec-02 09:31N 35°24' E 139°40'0 0.0
2016-Dec-02 08:31N 35°24' E 139°40'0 0.0
2016-Dec-02 07:31N 35°24' E 139°40'0 0.0
2016-Dec-02 06:31N 35°24' E 139°40'0 0.0
2016-Dec-02 05:25N 35°24' E 139°40'2 2.2
2016-Dec-02 04:33N 35°24' E 139°42'1211.6
2016-Dec-02 03:33N 35°31' E 139°53'8 1.6
2016-Dec-01 22:29N 35°38' E 139°59'4 1.2
2016-Dec-01 19:14N 35°35' E 139°55'0 0.0
2016-Dec-01 18:27N 35°35' E 139°55'0 0.0
2016-Dec-01 13:14N 35°36' E 139°55'6 8.9
2016-Dec-01 12:33N 35°31' E 139°50'1110.6
2016-Dec-01 11:33N 35°23' E 139°41'2 1.6
2016-Dec-01 10:33N 35°24' E 139°40'0 0.0
2016-Dec-01 09:33N 35°24' E 139°40'0 0.0
2016-Dec-01 08:33N 35°24' E 139°40'0 0.0
2016-Dec-01 07:33N 35°24' E 139°40'0 0.0
2016-Dec-01 06:33N 35°24' E 139°40'0 0.0
2016-Dec-01 05:33N 35°24' E 139°40'8 7.8
2016-Dec-01 04:33N 35°28' E 139°48'  
Track history (hours):
 
Tides and Currents Weather Stations Pressure Air Temp Water Temp Dewpoint Dewpoint Depression Visibility Wind Speed Wind Dir Waves Ship Positions

Shokyu Maru

Last reported at 2016-Dec-11 03:33 UTC. Time now 2016-Dec-11 04:12 UTC.
Position N 35°31' E 139°52'.

Length 91 m; draft 3.8 m.

Type: Ship. MMSI: 431000253.

Date/timePositionNaut miles runAvg speedWind from/ knotsBaromVisibWave heightAir tempDewpointWater temp
2016-Dec-11 03:33N 35°31' E 139°52'10 1.9
2016-Dec-10 22:09N 35°40' E 139°57'4 7.0
2016-Dec-10 21:32N 35°36' E 139°56'1 0.7
2016-Dec-10 20:18N 35°35' E 139°55'0 0.0
2016-Dec-10 19:30N 35°35' E 139°55'0 0.0
2016-Dec-10 17:21N 35°35' E 139°55'0 0.0
2016-Dec-10 12:33N 35°35' E 139°55'9 9.0
2016-Dec-10 11:33N 35°29' E 139°48'8 8.0
2016-Dec-10 10:32N 35°24' E 139°39'0 0.1
2016-Dec-10 09:32N 35°24' E 139°40'0 0.0
2016-Dec-10 08:32N 35°24' E 139°40'0 0.0
2016-Dec-10 07:32N 35°24' E 139°40'0 0.0
2016-Dec-10 06:32N 35°24' E 139°40'0 0.0
2016-Dec-10 05:32N 35°24' E 139°40'0 0.0
2016-Dec-10 04:32N 35°24' E 139°40'0 0.0
2016-Dec-10 03:32N 35°24' E 139°40'0 0.0
2016-Dec-10 02:32N 35°24' E 139°40'2 2.5
2016-Dec-10 01:33N 35°22' E 139°41'5 5.2
2016-Dec-10 00:33N 35°17' E 139°41'0 0.0
2016-Dec-09 23:33N 35°17' E 139°41'0 0.0
2016-Dec-09 22:33N 35°17' E 139°41'0 0.0
2016-Dec-09 21:33N 35°17' E 139°41'0 0.0
2016-Dec-09 20:33N 35°17' E 139°41'0 0.0
2016-Dec-09 19:33N 35°17' E 139°41'0 0.0
2016-Dec-09 18:27N 35°17' E 139°41'0 0.0
2016-Dec-09 17:33N 35°17' E 139°41'0 0.0
2016-Dec-09 16:27N 35°17' E 139°41'0 0.0
2016-Dec-09 15:33N 35°17' E 139°41'0 0.0
2016-Dec-09 14:33N 35°17' E 139°41'0 0.0
2016-Dec-09 13:33N 35°17' E 139°41'0 0.0
2016-Dec-09 12:33N 35°17' E 139°41'0 0.0
2016-Dec-09 11:21N 35°17' E 139°41'0 0.0
2016-Dec-09 10:30N 35°17' E 139°41'0 0.0
2016-Dec-09 09:33N 35°17' E 139°41'0 0.0
2016-Dec-09 08:30N 35°17' E 139°41'0 0.0
2016-Dec-09 07:33N 35°17' E 139°41'0 0.0
2016-Dec-09 06:16N 35°17' E 139°41'6 8.5
2016-Dec-09 05:33N 35°23' E 139°42'9 8.8
2016-Dec-09 04:33N 35°29' E 139°50'9 9.1
2016-Dec-09 03:33N 35°36' E 139°57'4 0.8
2016-Dec-08 22:11N 35°41' E 139°56'4 6.8
2016-Dec-08 21:33N 35°36' E 139°57'1 0.4
2016-Dec-08 18:33N 35°36' E 139°55'0 0.0
2016-Dec-08 17:18N 35°36' E 139°55'0 0.0
2016-Dec-08 16:21N 35°36' E 139°55'0 0.0
2016-Dec-08 15:33N 35°36' E 139°55'0 0.0
2016-Dec-08 14:30N 35°36' E 139°55'0 0.0
2016-Dec-08 13:18N 35°36' E 139°55'0 0.0
2016-Dec-08 12:33N 35°36' E 139°55'4 3.6
2016-Dec-08 11:33N 35°33' E 139°52'5 5.2
2016-Dec-08 10:32N 35°31' E 139°46'0 0.0
2016-Dec-08 09:32N 35°31' E 139°46'0 0.0
2016-Dec-08 08:32N 35°31' E 139°46'0 0.0
2016-Dec-08 07:32N 35°31' E 139°46'0 0.0
2016-Dec-08 06:29N 35°31' E 139°46'0 0.0
2016-Dec-08 05:32N 35°31' E 139°46'3 2.9
2016-Dec-08 04:33N 35°29' E 139°43'7 7.1
2016-Dec-08 03:33N 35°31' E 139°52'10 1.6
2016-Dec-07 21:33N 35°39' E 139°58'4 4.3
2016-Dec-07 20:32N 35°35' E 139°55'0 0.0
2016-Dec-07 19:32N 35°35' E 139°55'0 0.0
2016-Dec-07 17:29N 35°35' E 139°55'0 0.0
2016-Dec-07 14:14N 35°35' E 139°55'0 0.0
2016-Dec-07 13:26N 35°35' E 139°55'0 0.0
2016-Dec-07 11:32N 35°35' E 139°55'1 1.2
2016-Dec-07 10:33N 35°35' E 139°54'8 7.3
2016-Dec-07 09:32N 35°32' E 139°46'0 0.0
2016-Dec-07 08:29N 35°32' E 139°46'0 0.0
2016-Dec-07 07:32N 35°32' E 139°46'0 0.0
2016-Dec-07 06:29N 35°32' E 139°46'0 0.0
2016-Dec-07 05:29N 35°32' E 139°46'0 0.0
2016-Dec-07 04:32N 35°32' E 139°46'4 4.6
2016-Dec-07 03:34N 35°28' E 139°42'7 6.7
2016-Dec-07 02:33N 35°29' E 139°50'1110.9
2016-Dec-07 01:31N 35°38' E 139°59'0 0.0
2016-Dec-06 21:32N 35°38' E 139°58'6 0.6
2016-Dec-06 12:34N 35°34' E 139°54'10 9.7
2016-Dec-06 11:34N 35°27' E 139°45'6 5.1
2016-Dec-06 10:28N 35°24' E 139°40'0 0.0
2016-Dec-06 09:31N 35°24' E 139°40'0 0.0
2016-Dec-06 08:28N 35°24' E 139°40'0 0.0
2016-Dec-06 07:28N 35°24' E 139°40'0 0.0
2016-Dec-06 06:31N 35°24' E 139°40'0 0.0
2016-Dec-06 05:31N 35°24' E 139°40'0 0.0
2016-Dec-06 04:31N 35°24' E 139°40'2 1.9
2016-Dec-06 03:33N 35°24' E 139°42'1212.1
2016-Dec-06 02:33N 35°32' E 139°53'9 2.1
2016-Dec-05 22:04N 35°40' E 139°57'4 7.3
2016-Dec-05 21:31N 35°36' E 139°57'1 1.3
2016-Dec-05 20:26N 35°35' E 139°55'0 0.0
2016-Dec-05 19:29N 35°35' E 139°55'0 0.0
2016-Dec-05 18:32N 35°35' E 139°55'0 0.0
2016-Dec-05 17:29N 35°35' E 139°55'0 0.0
2016-Dec-05 14:11N 35°35' E 139°55'0 0.0
2016-Dec-05 13:29N 35°35' E 139°55'0 0.0
2016-Dec-05 12:32N 35°35' E 139°55'0 0.0
2016-Dec-05 11:32N 35°35' E 139°55'8 8.4
2016-Dec-05 10:33N 35°29' E 139°48'9 4.3
2016-Dec-05 08:31N 35°24' E 139°40'0 0.0
2016-Dec-05 07:31N 35°24' E 139°40'0 0.0
2016-Dec-05 06:31N 35°24' E 139°40'0 0.4
2016-Dec-05 05:33N 35°24' E 139°40'9 9.0
2016-Dec-05 04:33N 35°29' E 139°49'0 0.0
2016-Dec-05 03:31N 35°29' E 139°49'0 0.0
2016-Dec-05 02:31N 35°29' E 139°49'0 0.0
2016-Dec-05 01:31N 35°29' E 139°49'0 0.0
2016-Dec-05 00:31N 35°29' E 139°49'4 4.4
2016-Dec-04 23:33N 35°32' E 139°53'1010.2
2016-Dec-04 22:33N 35°41' E 139°59'0 0.0
2016-Dec-04 21:33N 35°41' E 139°59'0 0.0
2016-Dec-04 20:33N 35°41' E 139°59'0 0.0
2016-Dec-04 19:33N 35°41' E 139°59'0 0.0
2016-Dec-04 18:33N 35°41' E 139°59'0 0.0
2016-Dec-04 17:33N 35°41' E 139°59'0 0.0
2016-Dec-04 16:33N 35°41' E 139°59'0 0.0
2016-Dec-04 15:33N 35°41' E 139°59'0 0.0
2016-Dec-04 14:21N 35°41' E 139°59'0 0.0
2016-Dec-04 13:33N 35°41' E 139°59'0 0.0
2016-Dec-04 12:30N 35°41' E 139°59'0 0.0
2016-Dec-04 11:33N 35°41' E 139°59'0 0.0
2016-Dec-04 10:33N 35°41' E 139°59'0 0.0
2016-Dec-04 09:27N 35°41' E 139°59'0 0.0
2016-Dec-04 08:33N 35°41' E 139°59'0 0.0
2016-Dec-04 07:33N 35°41' E 139°59'0 0.0
2016-Dec-04 06:30N 35°41' E 139°59'0 0.0
2016-Dec-04 05:27N 35°41' E 139°59'0 0.0
2016-Dec-04 04:30N 35°41' E 139°59'0 0.0
2016-Dec-04 03:33N 35°41' E 139°59'3 2.8
2016-Dec-04 02:29N 35°38' E 139°59'1 1.3
2016-Dec-04 01:33N 35°37' E 139°58'2 0.4
2016-Dec-03 21:32N 35°39' E 139°58'4 4.3
2016-Dec-03 20:32N 35°35' E 139°55'0 0.0
2016-Dec-03 19:29N 35°35' E 139°55'0 0.0
2016-Dec-03 18:32N 35°35' E 139°55'0 0.0
2016-Dec-03 17:32N 35°35' E 139°55'0 0.0
2016-Dec-03 16:32N 35°35' E 139°55'0 0.0
2016-Dec-03 15:32N 35°35' E 139°55'0 0.0
2016-Dec-03 14:32N 35°35' E 139°55'0 0.0
2016-Dec-03 13:26N 35°35' E 139°55'0 0.0
2016-Dec-03 12:29N 35°35' E 139°55'0 0.0
2016-Dec-03 11:32N 35°35' E 139°55'6 6.6
2016-Dec-03 10:33N 35°31' E 139°50'1010.3
2016-Dec-03 09:33N 35°24' E 139°40'1 1.1
2016-Dec-03 08:31N 35°24' E 139°40'0 0.0
2016-Dec-03 07:31N 35°24' E 139°40'0 0.0
2016-Dec-03 06:31N 35°24' E 139°40'0 0.0
2016-Dec-03 05:33N 35°24' E 139°40'9 9.3
2016-Dec-03 04:33N 35°29' E 139°50'1211.8
2016-Dec-03 03:33N 35°38' E 139°59'1 0.2
2016-Dec-02 21:32N 35°39' E 139°58'4 1.3
2016-Dec-02 18:21N 35°36' E 139°55'0 0.0
2016-Dec-02 13:04N 35°35' E 139°55'510.2
2016-Dec-02 12:33N 35°32' E 139°51'1010.3
2016-Dec-02 11:33N 35°24' E 139°42'2 2.0
2016-Dec-02 10:31N 35°24' E 139°40'0 0.0
2016-Dec-02 09:31N 35°24' E 139°40'0 0.0
2016-Dec-02 08:31N 35°24' E 139°40'0 0.0
2016-Dec-02 07:31N 35°24' E 139°40'0 0.0
2016-Dec-02 06:31N 35°24' E 139°40'0 0.0
2016-Dec-02 05:25N 35°24' E 139°40'2 2.2
2016-Dec-02 04:33N 35°24' E 139°42'1211.6
2016-Dec-02 03:33N 35°31' E 139°53'8 1.6
2016-Dec-01 22:29N 35°38' E 139°59'4 1.2
2016-Dec-01 19:14N 35°35' E 139°55'0 0.0
2016-Dec-01 18:27N 35°35' E 139°55'0 0.0
2016-Dec-01 13:14N 35°36' E 139°55'6 8.9
2016-Dec-01 12:33N 35°31' E 139°50'1110.6
2016-Dec-01 11:33N 35°23' E 139°41'2 1.6
2016-Dec-01 10:33N 35°24' E 139°40'0 0.0
2016-Dec-01 09:33N 35°24' E 139°40'0 0.0
2016-Dec-01 08:33N 35°24' E 139°40'0 0.0
2016-Dec-01 07:33N 35°24' E 139°40'0 0.0
2016-Dec-01 06:33N 35°24' E 139°40'0 0.0
2016-Dec-01 05:33N 35°24' E 139°40'8 7.8
2016-Dec-01 04:33N 35°28' E 139°48'  

Dump ship's entire track history